sensor_id;sensor_type;location;lat;lon;timestamp;temperature;humidity
4312;DHT22;2169;49.086;9.284;2022-12-18T00:02:12;-7.70;60.20
4312;DHT22;2169;49.086;9.284;2022-12-18T00:04:39;-7.70;60.20
4312;DHT22;2169;49.086;9.284;2022-12-18T00:07:06;-7.70;60.20
4312;DHT22;2169;49.086;9.284;2022-12-18T00:09:34;-7.70;60.20
4312;DHT22;2169;49.086;9.284;2022-12-18T00:12:01;-7.80;60.10
4312;DHT22;2169;49.086;9.284;2022-12-18T00:14:27;-7.80;60.10
4312;DHT22;2169;49.086;9.284;2022-12-18T00:16:56;-7.80;60.10
4312;DHT22;2169;49.086;9.284;2022-12-18T00:19:27;-7.80;60.10
4312;DHT22;2169;49.086;9.284;2022-12-18T00:21:54;-7.80;60.10
4312;DHT22;2169;49.086;9.284;2022-12-18T00:24:21;-7.90;60.00
4312;DHT22;2169;49.086;9.284;2022-12-18T00:26:47;-7.90;60.00
4312;DHT22;2169;49.086;9.284;2022-12-18T00:29:14;-7.90;60.00
4312;DHT22;2169;49.086;9.284;2022-12-18T00:31:42;-8.00;60.00
4312;DHT22;2169;49.086;9.284;2022-12-18T00:34:10;-8.00;60.10
4312;DHT22;2169;49.086;9.284;2022-12-18T00:36:39;-8.00;60.10
4312;DHT22;2169;49.086;9.284;2022-12-18T00:39:07;-8.00;60.00
4312;DHT22;2169;49.086;9.284;2022-12-18T00:41:34;-8.00;60.10
4312;DHT22;2169;49.086;9.284;2022-12-18T00:44:19;-8.00;60.10
4312;DHT22;2169;49.086;9.284;2022-12-18T00:46:47;-8.00;60.10
4312;DHT22;2169;49.086;9.284;2022-12-18T00:49:16;-8.00;60.10
4312;DHT22;2169;49.086;9.284;2022-12-18T00:51:45;-8.00;60.10
4312;DHT22;2169;49.086;9.284;2022-12-18T00:54:13;-8.00;60.10
4312;DHT22;2169;49.086;9.284;2022-12-18T00:56:40;-8.10;60.00
4312;DHT22;2169;49.086;9.284;2022-12-18T00:59:07;-8.10;60.00
4312;DHT22;2169;49.086;9.284;2022-12-18T01:01:34;-8.10;60.00
4312;DHT22;2169;49.086;9.284;2022-12-18T01:04:02;-8.10;60.00
4312;DHT22;2169;49.086;9.284;2022-12-18T01:06:29;-8.10;60.00
4312;DHT22;2169;49.086;9.284;2022-12-18T01:08:58;-8.10;60.00
4312;DHT22;2169;49.086;9.284;2022-12-18T01:11:25;-8.10;60.00
4312;DHT22;2169;49.086;9.284;2022-12-18T01:13:53;-8.10;60.00
4312;DHT22;2169;49.086;9.284;2022-12-18T01:16:21;-8.10;60.00
4312;DHT22;2169;49.086;9.284;2022-12-18T01:18:51;-8.20;59.90
4312;DHT22;2169;49.086;9.284;2022-12-18T01:21:18;-8.20;59.90
4312;DHT22;2169;49.086;9.284;2022-12-18T01:23:45;-8.20;60.00
4312;DHT22;2169;49.086;9.284;2022-12-18T01:26:17;-8.20;60.00
4312;DHT22;2169;49.086;9.284;2022-12-18T01:28:44;-8.20;60.00
4312;DHT22;2169;49.086;9.284;2022-12-18T01:31:13;-8.20;60.00
4312;DHT22;2169;49.086;9.284;2022-12-18T01:33:40;-8.20;60.00
4312;DHT22;2169;49.086;9.284;2022-12-18T01:36:08;-8.30;59.90
4312;DHT22;2169;49.086;9.284;2022-12-18T01:38:35;-8.30;60.00
4312;DHT22;2169;49.086;9.284;2022-12-18T01:41:02;-8.30;60.00
4312;DHT22;2169;49.086;9.284;2022-12-18T01:43:57;-8.30;60.00
4312;DHT22;2169;49.086;9.284;2022-12-18T01:46:25;-8.30;60.00
4312;DHT22;2169;49.086;9.284;2022-12-18T01:48:55;-8.30;60.00
4312;DHT22;2169;49.086;9.284;2022-12-18T01:51:23;-8.30;60.00
4312;DHT22;2169;49.086;9.284;2022-12-18T01:53:51;-8.30;60.00
4312;DHT22;2169;49.086;9.284;2022-12-18T01:56:20;-8.30;60.00
4312;DHT22;2169;49.086;9.284;2022-12-18T01:59:04;-8.30;60.10
4312;DHT22;2169;49.086;9.284;2022-12-18T02:01:33;-8.30;60.10
4312;DHT22;2169;49.086;9.284;2022-12-18T02:04:19;-8.40;60.00
4312;DHT22;2169;49.086;9.284;2022-12-18T02:06:48;-8.30;60.80
4312;DHT22;2169;49.086;9.284;2022-12-18T02:09:20;-8.30;60.20
4312;DHT22;2169;49.086;9.284;2022-12-18T02:11:53;-8.40;60.10
4312;DHT22;2169;49.086;9.284;2022-12-18T02:14:31;-8.40;60.10
4312;DHT22;2169;49.086;9.284;2022-12-18T02:17:02;-8.40;60.10
4312;DHT22;2169;49.086;9.284;2022-12-18T02:19:42;-8.40;60.10
4312;DHT22;2169;49.086;9.284;2022-12-18T02:22:21;-8.40;60.10
4312;DHT22;2169;49.086;9.284;2022-12-18T02:24:59;-8.40;60.10
4312;DHT22;2169;49.086;9.284;2022-12-18T02:27:30;-8.40;60.10
4312;DHT22;2169;49.086;9.284;2022-12-18T02:30:00;-8.40;60.10
4312;DHT22;2169;49.086;9.284;2022-12-18T02:32:30;-8.50;60.00
4312;DHT22;2169;49.086;9.284;2022-12-18T02:34:59;-8.50;60.10
4312;DHT22;2169;49.086;9.284;2022-12-18T02:37:29;-8.50;60.10
4312;DHT22;2169;49.086;9.284;2022-12-18T02:39:58;-8.50;60.10
4312;DHT22;2169;49.086;9.284;2022-12-18T02:42:29;-8.50;60.10
4312;DHT22;2169;49.086;9.284;2022-12-18T02:44:56;-8.60;60.00
4312;DHT22;2169;49.086;9.284;2022-12-18T02:47:28;-8.50;60.20
4312;DHT22;2169;49.086;9.284;2022-12-18T02:50:04;-8.60;60.10
4312;DHT22;2169;49.086;9.284;2022-12-18T02:52:39;-8.50;60.20
4312;DHT22;2169;49.086;9.284;2022-12-18T02:55:21;-8.60;60.10
4312;DHT22;2169;49.086;9.284;2022-12-18T02:57:55;-8.50;60.20
4312;DHT22;2169;49.086;9.284;2022-12-18T03:00:30;-8.50;60.30
4312;DHT22;2169;49.086;9.284;2022-12-18T03:03:05;-8.60;60.10
4312;DHT22;2169;49.086;9.284;2022-12-18T03:05:38;-8.60;60.10
4312;DHT22;2169;49.086;9.284;2022-12-18T03:08:08;-8.60;60.10
4312;DHT22;2169;49.086;9.284;2022-12-18T03:10:42;-8.60;60.10
4312;DHT22;2169;49.086;9.284;2022-12-18T03:13:15;-8.60;60.10
4312;DHT22;2169;49.086;9.284;2022-12-18T03:15:46;-8.60;60.80
4312;DHT22;2169;49.086;9.284;2022-12-18T03:18:16;-8.60;60.10
4312;DHT22;2169;49.086;9.284;2022-12-18T03:20:45;-8.60;60.20
4312;DHT22;2169;49.086;9.284;2022-12-18T03:23:16;-8.60;60.20
4312;DHT22;2169;49.086;9.284;2022-12-18T03:25:44;-8.60;60.20
4312;DHT22;2169;49.086;9.284;2022-12-18T03:28:15;-8.70;60.10
4312;DHT22;2169;49.086;9.284;2022-12-18T03:30:46;-8.70;60.10
4312;DHT22;2169;49.086;9.284;2022-12-18T03:33:18;-8.70;60.10
4312;DHT22;2169;49.086;9.284;2022-12-18T03:35:46;-8.70;60.10
4312;DHT22;2169;49.086;9.284;2022-12-18T03:38:14;-8.70;60.10
4312;DHT22;2169;49.086;9.284;2022-12-18T03:40:53;-8.70;60.20
4312;DHT22;2169;49.086;9.284;2022-12-18T03:43:32;-8.70;60.20
4312;DHT22;2169;49.086;9.284;2022-12-18T03:46:06;-8.70;60.10
4312;DHT22;2169;49.086;9.284;2022-12-18T03:48:41;-8.70;60.10
4312;DHT22;2169;49.086;9.284;2022-12-18T03:51:11;-8.70;60.10
4312;DHT22;2169;49.086;9.284;2022-12-18T03:53:46;-8.70;60.10
4312;DHT22;2169;49.086;9.284;2022-12-18T03:56:15;-8.70;60.80
4312;DHT22;2169;49.086;9.284;2022-12-18T03:58:46;-8.80;60.10
4312;DHT22;2169;49.086;9.284;2022-12-18T04:01:16;-8.80;60.00
4312;DHT22;2169;49.086;9.284;2022-12-18T04:03:46;-8.80;60.10
4312;DHT22;2169;49.086;9.284;2022-12-18T04:06:16;-8.80;60.10
4312;DHT22;2169;49.086;9.284;2022-12-18T04:08:44;-8.80;60.10
4312;DHT22;2169;49.086;9.284;2022-12-18T04:11:13;-8.80;60.10
4312;DHT22;2169;49.086;9.284;2022-12-18T04:13:43;-8.80;60.10
4312;DHT22;2169;49.086;9.284;2022-12-18T04:16:10;-8.80;60.10
4312;DHT22;2169;49.086;9.284;2022-12-18T04:18:39;-8.80;60.10
4312;DHT22;2169;49.086;9.284;2022-12-18T04:21:05;-8.90;60.00
4312;DHT22;2169;49.086;9.284;2022-12-18T04:23:33;-8.80;60.10
4312;DHT22;2169;49.086;9.284;2022-12-18T04:26:00;-8.90;60.10
4312;DHT22;2169;49.086;9.284;2022-12-18T04:28:28;-8.90;60.00
4312;DHT22;2169;49.086;9.284;2022-12-18T04:30:56;-8.90;60.70
4312;DHT22;2169;49.086;9.284;2022-12-18T04:33:23;-8.80;60.10
4312;DHT22;2169;49.086;9.284;2022-12-18T04:35:51;-8.90;60.00
4312;DHT22;2169;49.086;9.284;2022-12-18T04:38:17;-8.90;60.00
4312;DHT22;2169;49.086;9.284;2022-12-18T04:40:44;-9.00;59.90
4312;DHT22;2169;49.086;9.284;2022-12-18T04:43:11;-9.00;59.90
4312;DHT22;2169;49.086;9.284;2022-12-18T04:45:38;-9.00;60.00
4312;DHT22;2169;49.086;9.284;2022-12-18T04:48:06;-9.00;60.00
4312;DHT22;2169;49.086;9.284;2022-12-18T04:50:33;-9.00;60.10
4312;DHT22;2169;49.086;9.284;2022-12-18T04:53:03;-9.00;60.10
4312;DHT22;2169;49.086;9.284;2022-12-18T04:55:30;-9.00;60.10
4312;DHT22;2169;49.086;9.284;2022-12-18T04:57:57;-9.00;60.10
4312;DHT22;2169;49.086;9.284;2022-12-18T05:00:24;-9.00;60.10
4312;DHT22;2169;49.086;9.284;2022-12-18T05:02:51;-9.00;60.10
4312;DHT22;2169;49.086;9.284;2022-12-18T05:05:20;-9.00;60.10
4312;DHT22;2169;49.086;9.284;2022-12-18T05:07:46;-9.00;60.00
4312;DHT22;2169;49.086;9.284;2022-12-18T05:10:13;-9.10;60.00
4312;DHT22;2169;49.086;9.284;2022-12-18T05:12:40;-9.10;60.00
4312;DHT22;2169;49.086;9.284;2022-12-18T05:15:22;-9.10;60.00
4312;DHT22;2169;49.086;9.284;2022-12-18T05:17:49;-9.10;60.00
4312;DHT22;2169;49.086;9.284;2022-12-18T05:20:16;-9.10;60.00
4312;DHT22;2169;49.086;9.284;2022-12-18T05:22:46;-9.10;60.00
4312;DHT22;2169;49.086;9.284;2022-12-18T05:25:13;-9.10;60.70
4312;DHT22;2169;49.086;9.284;2022-12-18T05:27:39;-9.10;60.00
4312;DHT22;2169;49.086;9.284;2022-12-18T05:30:08;-9.10;60.00
4312;DHT22;2169;49.086;9.284;2022-12-18T05:32:34;-9.20;60.00
4312;DHT22;2169;49.086;9.284;2022-12-18T05:35:01;-9.10;60.00
4312;DHT22;2169;49.086;9.284;2022-12-18T05:37:28;-9.20;59.60
4312;DHT22;2169;49.086;9.284;2022-12-18T05:39:58;-9.20;60.00
4312;DHT22;2169;49.086;9.284;2022-12-18T05:42:24;-9.20;60.00
4312;DHT22;2169;49.086;9.284;2022-12-18T05:44:51;-9.20;60.00
4312;DHT22;2169;49.086;9.284;2022-12-18T05:47:18;-9.20;60.60
4312;DHT22;2169;49.086;9.284;2022-12-18T05:49:45;-9.20;60.00
4312;DHT22;2169;49.086;9.284;2022-12-18T05:52:12;-9.20;60.00
4312;DHT22;2169;49.086;9.284;2022-12-18T05:54:39;-9.20;60.00
4312;DHT22;2169;49.086;9.284;2022-12-18T05:57:07;-9.30;59.90
4312;DHT22;2169;49.086;9.284;2022-12-18T05:59:34;-9.20;60.00
4312;DHT22;2169;49.086;9.284;2022-12-18T06:02:01;-9.30;59.90
4312;DHT22;2169;49.086;9.284;2022-12-18T06:04:28;-9.30;59.90
4312;DHT22;2169;49.086;9.284;2022-12-18T06:06:55;-9.30;59.90
4312;DHT22;2169;49.086;9.284;2022-12-18T06:09:22;-9.30;59.90
4312;DHT22;2169;49.086;9.284;2022-12-18T06:11:51;-9.30;59.90
4312;DHT22;2169;49.086;9.284;2022-12-18T06:14:21;-9.30;59.90
4312;DHT22;2169;49.086;9.284;2022-12-18T06:16:50;-9.40;59.80
4312;DHT22;2169;49.086;9.284;2022-12-18T06:19:17;-9.40;59.80
4312;DHT22;2169;49.086;9.284;2022-12-18T06:21:46;-9.40;59.90
4312;DHT22;2169;49.086;9.284;2022-12-18T06:24:14;-9.40;59.90
4312;DHT22;2169;49.086;9.284;2022-12-18T06:26:42;-9.40;59.90
4312;DHT22;2169;49.086;9.284;2022-12-18T06:29:09;-9.40;59.90
4312;DHT22;2169;49.086;9.284;2022-12-18T06:31:38;-9.40;59.90
4312;DHT22;2169;49.086;9.284;2022-12-18T06:34:04;-9.40;59.90
4312;DHT22;2169;49.086;9.284;2022-12-18T06:36:32;-9.40;59.90
4312;DHT22;2169;49.086;9.284;2022-12-18T06:38:59;-9.40;59.90
4312;DHT22;2169;49.086;9.284;2022-12-18T06:41:26;-9.50;59.80
4312;DHT22;2169;49.086;9.284;2022-12-18T06:43:53;-9.50;59.90
4312;DHT22;2169;49.086;9.284;2022-12-18T06:46:20;-9.50;60.50
4312;DHT22;2169;49.086;9.284;2022-12-18T06:48:50;-9.50;59.90
4312;DHT22;2169;49.086;9.284;2022-12-18T06:51:18;-9.50;59.90
4312;DHT22;2169;49.086;9.284;2022-12-18T06:53:45;-9.50;59.90
4312;DHT22;2169;49.086;9.284;2022-12-18T06:56:12;-9.50;59.90
4312;DHT22;2169;49.086;9.284;2022-12-18T06:58:39;-9.50;59.90
4312;DHT22;2169;49.086;9.284;2022-12-18T07:01:10;-9.50;59.90
4312;DHT22;2169;49.086;9.284;2022-12-18T07:03:37;-9.50;59.90
4312;DHT22;2169;49.086;9.284;2022-12-18T07:06:06;-9.50;60.00
4312;DHT22;2169;49.086;9.284;2022-12-18T07:08:34;-9.50;59.90
4312;DHT22;2169;49.086;9.284;2022-12-18T07:11:03;-9.50;59.90
4312;DHT22;2169;49.086;9.284;2022-12-18T07:13:31;-9.50;59.90
4312;DHT22;2169;49.086;9.284;2022-12-18T07:16:07;-9.50;60.00
4312;DHT22;2169;49.086;9.284;2022-12-18T07:18:34;-9.50;60.00
4312;DHT22;2169;49.086;9.284;2022-12-18T07:21:05;-9.50;60.20
4312;DHT22;2169;49.086;9.284;2022-12-18T07:23:33;-9.50;59.90
4312;DHT22;2169;49.086;9.284;2022-12-18T07:26:03;-9.50;59.90
4312;DHT22;2169;49.086;9.284;2022-12-18T07:28:31;-9.50;60.00
4312;DHT22;2169;49.086;9.284;2022-12-18T07:30:58;-9.50;59.90
4312;DHT22;2169;49.086;9.284;2022-12-18T07:33:25;-9.50;60.00
4312;DHT22;2169;49.086;9.284;2022-12-18T07:35:52;-9.50;59.90
4312;DHT22;2169;49.086;9.284;2022-12-18T07:38:20;-9.50;59.90
4312;DHT22;2169;49.086;9.284;2022-12-18T07:40:47;-9.60;59.90
4312;DHT22;2169;49.086;9.284;2022-12-18T07:43:14;-9.50;60.00
4312;DHT22;2169;49.086;9.284;2022-12-18T07:45:42;-9.50;60.00
4312;DHT22;2169;49.086;9.284;2022-12-18T07:48:10;-9.50;60.00
4312;DHT22;2169;49.086;9.284;2022-12-18T07:50:37;-9.50;60.00
4312;DHT22;2169;49.086;9.284;2022-12-18T07:53:04;-9.50;60.10
4312;DHT22;2169;49.086;9.284;2022-12-18T07:55:32;-9.50;60.10
4312;DHT22;2169;49.086;9.284;2022-12-18T07:58:01;-9.50;60.10
4312;DHT22;2169;49.086;9.284;2022-12-18T08:00:28;-9.50;60.20
4312;DHT22;2169;49.086;9.284;2022-12-18T08:02:55;-9.50;60.30
4312;DHT22;2169;49.086;9.284;2022-12-18T08:05:22;-9.40;60.30
4312;DHT22;2169;49.086;9.284;2022-12-18T08:07:49;-9.40;60.40
4312;DHT22;2169;49.086;9.284;2022-12-18T08:10:16;-9.40;60.40
4312;DHT22;2169;49.086;9.284;2022-12-18T08:12:44;-9.30;60.60
4312;DHT22;2169;49.086;9.284;2022-12-18T08:15:11;-9.30;60.60
4312;DHT22;2169;49.086;9.284;2022-12-18T08:17:38;-9.20;61.40
4312;DHT22;2169;49.086;9.284;2022-12-18T08:20:06;-9.20;60.80
4312;DHT22;2169;49.086;9.284;2022-12-18T08:22:33;-9.20;60.80
4312;DHT22;2169;49.086;9.284;2022-12-18T08:25:00;-9.10;60.90
4312;DHT22;2169;49.086;9.284;2022-12-18T08:27:28;-9.10;60.90
4312;DHT22;2169;49.086;9.284;2022-12-18T08:29:56;-9.10;61.00
4312;DHT22;2169;49.086;9.284;2022-12-18T08:32:23;-9.10;61.00
4312;DHT22;2169;49.086;9.284;2022-12-18T08:34:50;-9.00;61.20
4312;DHT22;2169;49.086;9.284;2022-12-18T08:37:17;-9.00;61.20
4312;DHT22;2169;49.086;9.284;2022-12-18T08:39:44;-9.00;61.30
4312;DHT22;2169;49.086;9.284;2022-12-18T08:42:12;-8.90;61.40
4312;DHT22;2169;49.086;9.284;2022-12-18T08:44:58;-8.90;61.40
4312;DHT22;2169;49.086;9.284;2022-12-18T08:47:25;-8.90;61.40
4312;DHT22;2169;49.086;9.284;2022-12-18T08:49:52;-8.80;61.60
4312;DHT22;2169;49.086;9.284;2022-12-18T08:52:19;-8.80;61.60
4312;DHT22;2169;49.086;9.284;2022-12-18T08:54:46;-8.70;61.70
4312;DHT22;2169;49.086;9.284;2022-12-18T08:57:13;-8.70;61.70
4312;DHT22;2169;49.086;9.284;2022-12-18T08:59:40;-8.60;61.90
4312;DHT22;2169;49.086;9.284;2022-12-18T09:02:10;-8.50;62.00
4312;DHT22;2169;49.086;9.284;2022-12-18T09:04:37;-8.50;62.00
4312;DHT22;2169;49.086;9.284;2022-12-18T09:07:06;-8.40;62.10
4312;DHT22;2169;49.086;9.284;2022-12-18T09:09:34;-8.40;62.30
4312;DHT22;2169;49.086;9.284;2022-12-18T09:12:02;-8.30;62.50
4312;DHT22;2169;49.086;9.284;2022-12-18T09:14:29;-8.20;62.60
4312;DHT22;2169;49.086;9.284;2022-12-18T09:16:56;-8.00;62.90
4312;DHT22;2169;49.086;9.284;2022-12-18T09:19:24;-8.00;62.90
4312;DHT22;2169;49.086;9.284;2022-12-18T09:21:51;-7.90;63.00
4312;DHT22;2169;49.086;9.284;2022-12-18T09:24:17;-7.80;63.20
4312;DHT22;2169;49.086;9.284;2022-12-18T09:26:44;-7.70;63.40
4312;DHT22;2169;49.086;9.284;2022-12-18T09:29:11;-7.50;63.70
4312;DHT22;2169;49.086;9.284;2022-12-18T09:31:38;-7.40;63.80
4312;DHT22;2169;49.086;9.284;2022-12-18T09:34:05;-7.30;64.00
4312;DHT22;2169;49.086;9.284;2022-12-18T09:36:34;-7.20;64.20
4312;DHT22;2169;49.086;9.284;2022-12-18T09:39:01;-7.10;64.40
4312;DHT22;2169;49.086;9.284;2022-12-18T09:41:39;-7.00;64.60
4312;DHT22;2169;49.086;9.284;2022-12-18T09:44:17;-6.80;65.00
4312;DHT22;2169;49.086;9.284;2022-12-18T09:46:48;-6.70;65.80
4312;DHT22;2169;49.086;9.284;2022-12-18T09:49:19;-6.60;65.40
4312;DHT22;2169;49.086;9.284;2022-12-18T09:51:53;-6.50;65.70
4312;DHT22;2169;49.086;9.284;2022-12-18T09:54:24;-6.30;65.80
4312;DHT22;2169;49.086;9.284;2022-12-18T09:56:52;-6.20;65.90
4312;DHT22;2169;49.086;9.284;2022-12-18T09:59:24;-6.10;66.10
4312;DHT22;2169;49.086;9.284;2022-12-18T10:01:51;-6.00;66.30
4312;DHT22;2169;49.086;9.284;2022-12-18T10:04:19;-5.90;66.40
4312;DHT22;2169;49.086;9.284;2022-12-18T10:06:52;-5.70;66.60
4312;DHT22;2169;49.086;9.284;2022-12-18T10:09:28;-5.60;66.80
4312;DHT22;2169;49.086;9.284;2022-12-18T10:12:04;-5.50;66.90
4312;DHT22;2169;49.086;9.284;2022-12-18T10:14:39;-5.40;67.00
4312;DHT22;2169;49.086;9.284;2022-12-18T10:17:14;-5.30;67.10
4312;DHT22;2169;49.086;9.284;2022-12-18T10:19:50;-5.20;67.20
4312;DHT22;2169;49.086;9.284;2022-12-18T10:22:30;-5.10;67.30
4312;DHT22;2169;49.086;9.284;2022-12-18T10:25:05;-5.00;67.40
4312;DHT22;2169;49.086;9.284;2022-12-18T10:27:36;-4.90;67.50
4312;DHT22;2169;49.086;9.284;2022-12-18T10:30:13;-4.70;67.60
4312;DHT22;2169;49.086;9.284;2022-12-18T10:32:40;-4.60;67.70
4312;DHT22;2169;49.086;9.284;2022-12-18T10:35:14;-4.60;67.70
4312;DHT22;2169;49.086;9.284;2022-12-18T10:37:59;-4.50;67.70
4312;DHT22;2169;49.086;9.284;2022-12-18T10:40:27;-4.40;67.70
4312;DHT22;2169;49.086;9.284;2022-12-18T10:43:04;-4.30;67.80
4312;DHT22;2169;49.086;9.284;2022-12-18T10:45:31;-4.20;67.80
4312;DHT22;2169;49.086;9.284;2022-12-18T10:47:58;-4.20;67.70
4312;DHT22;2169;49.086;9.284;2022-12-18T10:50:28;-4.10;67.80
4312;DHT22;2169;49.086;9.284;2022-12-18T10:52:59;-4.00;67.80
4312;DHT22;2169;49.086;9.284;2022-12-18T10:55:31;-3.90;67.90
4312;DHT22;2169;49.086;9.284;2022-12-18T10:58:18;-3.80;67.90
4312;DHT22;2169;49.086;9.284;2022-12-18T11:01:02;-3.70;67.90
4312;DHT22;2169;49.086;9.284;2022-12-18T11:03:32;-3.60;67.90
4312;DHT22;2169;49.086;9.284;2022-12-18T11:06:06;-3.60;67.80
4312;DHT22;2169;49.086;9.284;2022-12-18T11:08:36;-3.50;67.80
4312;DHT22;2169;49.086;9.284;2022-12-18T11:11:07;-3.40;67.80
4312;DHT22;2169;49.086;9.284;2022-12-18T11:13:34;-3.40;67.70
4312;DHT22;2169;49.086;9.284;2022-12-18T11:16:01;-3.30;67.70
4312;DHT22;2169;49.086;9.284;2022-12-18T11:18:29;-3.30;67.60
4312;DHT22;2169;49.086;9.284;2022-12-18T11:20:59;-3.20;67.70
4312;DHT22;2169;49.086;9.284;2022-12-18T11:23:27;-3.10;67.60
4312;DHT22;2169;49.086;9.284;2022-12-18T11:25:58;-3.10;67.60
4312;DHT22;2169;49.086;9.284;2022-12-18T11:28:34;-3.00;67.50
4312;DHT22;2169;49.086;9.284;2022-12-18T11:31:20;-3.00;67.40
4312;DHT22;2169;49.086;9.284;2022-12-18T11:34:00;-2.90;67.40
4312;DHT22;2169;49.086;9.284;2022-12-18T11:36:30;-2.90;67.30
4312;DHT22;2169;49.086;9.284;2022-12-18T11:39:02;-2.80;67.20
4312;DHT22;2169;49.086;9.284;2022-12-18T11:41:37;-2.80;67.20
4312;DHT22;2169;49.086;9.284;2022-12-18T11:44:26;-2.70;67.20
4312;DHT22;2169;49.086;9.284;2022-12-18T11:46:59;-2.60;67.10
4312;DHT22;2169;49.086;9.284;2022-12-18T11:49:34;-2.60;67.00
4312;DHT22;2169;49.086;9.284;2022-12-18T11:52:06;-2.50;67.00
4312;DHT22;2169;49.086;9.284;2022-12-18T11:54:35;-2.50;67.00
4312;DHT22;2169;49.086;9.284;2022-12-18T11:57:10;-2.50;66.90
4312;DHT22;2169;49.086;9.284;2022-12-18T11:59:46;-2.40;66.90
4312;DHT22;2169;49.086;9.284;2022-12-18T12:02:28;-2.40;66.80
4312;DHT22;2169;49.086;9.284;2022-12-18T12:07:59;-2.20;66.80
4312;DHT22;2169;49.086;9.284;2022-12-18T12:10:42;-2.20;66.70
4312;DHT22;2169;49.086;9.284;2022-12-18T12:13:26;-2.10;66.70
4312;DHT22;2169;49.086;9.284;2022-12-18T12:16:08;-2.10;66.60
4312;DHT22;2169;49.086;9.284;2022-12-18T12:18:47;-2.10;66.50
4312;DHT22;2169;49.086;9.284;2022-12-18T12:21:22;-2.00;66.50
4312;DHT22;2169;49.086;9.284;2022-12-18T12:23:56;-2.00;66.40
4312;DHT22;2169;49.086;9.284;2022-12-18T12:26:32;-2.00;66.40
4312;DHT22;2169;49.086;9.284;2022-12-18T12:29:14;-1.90;66.40
4312;DHT22;2169;49.086;9.284;2022-12-18T12:31:52;-1.80;66.40
4312;DHT22;2169;49.086;9.284;2022-12-18T12:34:25;-1.80;66.40
4312;DHT22;2169;49.086;9.284;2022-12-18T12:37:10;-1.80;66.30
4312;DHT22;2169;49.086;9.284;2022-12-18T12:39:43;-1.70;66.30
4312;DHT22;2169;49.086;9.284;2022-12-18T12:42:15;-1.70;66.20
4312;DHT22;2169;49.086;9.284;2022-12-18T12:45:18;-1.70;66.10
4312;DHT22;2169;49.086;9.284;2022-12-18T12:47:49;-1.60;66.20
4312;DHT22;2169;49.086;9.284;2022-12-18T12:50:19;-1.50;66.10
4312;DHT22;2169;49.086;9.284;2022-12-18T12:52:51;-1.50;66.10
4312;DHT22;2169;49.086;9.284;2022-12-18T12:55:21;-1.50;66.00
4312;DHT22;2169;49.086;9.284;2022-12-18T12:57:54;-1.50;66.00
4312;DHT22;2169;49.086;9.284;2022-12-18T13:00:25;-1.40;66.00
4312;DHT22;2169;49.086;9.284;2022-12-18T13:03:01;-1.40;65.90
4312;DHT22;2169;49.086;9.284;2022-12-18T13:05:37;-1.30;66.00
4312;DHT22;2169;49.086;9.284;2022-12-18T13:08:07;-1.30;65.80
4312;DHT22;2169;49.086;9.284;2022-12-18T13:10:36;-1.30;65.70
4312;DHT22;2169;49.086;9.284;2022-12-18T13:13:05;-1.20;65.70
4312;DHT22;2169;49.086;9.284;2022-12-18T13:15:37;-1.20;65.70
4312;DHT22;2169;49.086;9.284;2022-12-18T13:18:15;-1.20;65.60
4312;DHT22;2169;49.086;9.284;2022-12-18T13:20:45;-1.10;65.60
4312;DHT22;2169;49.086;9.284;2022-12-18T13:23:33;-1.10;65.60
4312;DHT22;2169;49.086;9.284;2022-12-18T13:26:29;-1.00;65.60
4312;DHT22;2169;49.086;9.284;2022-12-18T13:28:58;-1.00;65.60
4312;DHT22;2169;49.086;9.284;2022-12-18T13:34:35;-0.90;65.50
4312;DHT22;2169;49.086;9.284;2022-12-18T13:37:40;-0.90;65.40
4312;DHT22;2169;49.086;9.284;2022-12-18T13:43:32;-0.90;65.30
4312;DHT22;2169;49.086;9.284;2022-12-18T13:46:03;-0.80;65.40
4312;DHT22;2169;49.086;9.284;2022-12-18T13:48:32;-0.80;65.30
4312;DHT22;2169;49.086;9.284;2022-12-18T13:51:04;-0.80;65.30
4312;DHT22;2169;49.086;9.284;2022-12-18T13:53:35;-0.80;65.20
4312;DHT22;2169;49.086;9.284;2022-12-18T13:56:05;-0.80;65.20
4312;DHT22;2169;49.086;9.284;2022-12-18T13:58:32;-0.80;65.10
4312;DHT22;2169;49.086;9.284;2022-12-18T14:00:59;-0.70;65.20
4312;DHT22;2169;49.086;9.284;2022-12-18T14:03:29;-0.70;65.10
4312;DHT22;2169;49.086;9.284;2022-12-18T14:06:02;-0.70;65.10
4312;DHT22;2169;49.086;9.284;2022-12-18T14:08:38;-0.70;65.00
4312;DHT22;2169;49.086;9.284;2022-12-18T14:11:06;-0.60;65.10
4312;DHT22;2169;49.086;9.284;2022-12-18T14:13:36;-0.60;65.00
4312;DHT22;2169;49.086;9.284;2022-12-18T14:16:05;-0.60;65.00
4312;DHT22;2169;49.086;9.284;2022-12-18T14:18:38;-0.60;65.00
4312;DHT22;2169;49.086;9.284;2022-12-18T14:21:18;-0.60;64.90
4312;DHT22;2169;49.086;9.284;2022-12-18T14:23:48;-0.60;64.90
4312;DHT22;2169;49.086;9.284;2022-12-18T14:26:25;-0.60;64.90
4312;DHT22;2169;49.086;9.284;2022-12-18T14:28:54;-0.60;64.90
4312;DHT22;2169;49.086;9.284;2022-12-18T14:31:23;-0.60;64.80
4312;DHT22;2169;49.086;9.284;2022-12-18T14:33:50;-0.60;64.70
4312;DHT22;2169;49.086;9.284;2022-12-18T14:36:19;-0.60;64.70
4312;DHT22;2169;49.086;9.284;2022-12-18T14:38:52;-0.60;64.70
4312;DHT22;2169;49.086;9.284;2022-12-18T14:41:21;-0.50;64.80
4312;DHT22;2169;49.086;9.284;2022-12-18T14:43:50;-0.60;64.60
4312;DHT22;2169;49.086;9.284;2022-12-18T14:46:29;-0.60;64.60
4312;DHT22;2169;49.086;9.284;2022-12-18T14:48:59;-0.60;64.60
4312;DHT22;2169;49.086;9.284;2022-12-18T14:51:27;-0.60;65.20
4312;DHT22;2169;49.086;9.284;2022-12-18T14:53:58;-0.60;64.50
4312;DHT22;2169;49.086;9.284;2022-12-18T14:56:27;-0.60;64.50
4312;DHT22;2169;49.086;9.284;2022-12-18T14:58:56;-0.60;64.50
4312;DHT22;2169;49.086;9.284;2022-12-18T15:01:27;-0.60;64.50
4312;DHT22;2169;49.086;9.284;2022-12-18T15:03:56;-0.70;64.30
4312;DHT22;2169;49.086;9.284;2022-12-18T15:06:30;-0.70;64.30
4312;DHT22;2169;49.086;9.284;2022-12-18T15:09:01;-0.70;64.30
4312;DHT22;2169;49.086;9.284;2022-12-18T15:11:35;-0.70;64.30
4312;DHT22;2169;49.086;9.284;2022-12-18T15:14:24;-0.70;64.30
4312;DHT22;2169;49.086;9.284;2022-12-18T15:16:57;-0.70;64.30
4312;DHT22;2169;49.086;9.284;2022-12-18T15:19:34;-0.70;64.40
4312;DHT22;2169;49.086;9.284;2022-12-18T15:22:02;-0.60;64.40
4312;DHT22;2169;49.086;9.284;2022-12-18T15:24:32;-0.70;64.30
4312;DHT22;2169;49.086;9.284;2022-12-18T15:26:59;-0.70;64.30
4312;DHT22;2169;49.086;9.284;2022-12-18T15:29:26;-0.70;64.30
4312;DHT22;2169;49.086;9.284;2022-12-18T15:32:02;-0.80;64.20
4312;DHT22;2169;49.086;9.284;2022-12-18T15:34:33;-0.80;64.20
4312;DHT22;2169;49.086;9.284;2022-12-18T15:37:00;-0.90;64.10
4312;DHT22;2169;49.086;9.284;2022-12-18T15:39:27;-0.90;64.10
4312;DHT22;2169;49.086;9.284;2022-12-18T15:41:56;-0.90;64.10
4312;DHT22;2169;49.086;9.284;2022-12-18T15:44:40;-1.00;64.10
4312;DHT22;2169;49.086;9.284;2022-12-18T15:47:12;-1.00;64.10
4312;DHT22;2169;49.086;9.284;2022-12-18T15:49:39;-1.00;64.10
4312;DHT22;2169;49.086;9.284;2022-12-18T15:52:07;-1.00;64.10
4312;DHT22;2169;49.086;9.284;2022-12-18T15:54:37;-1.10;64.00
4312;DHT22;2169;49.086;9.284;2022-12-18T15:57:23;-1.10;64.00
4312;DHT22;2169;49.086;9.284;2022-12-18T15:59:51;-1.10;64.00
4312;DHT22;2169;49.086;9.284;2022-12-18T16:02:20;-1.20;63.90
4312;DHT22;2169;49.086;9.284;2022-12-18T16:04:48;-1.20;63.90
4312;DHT22;2169;49.086;9.284;2022-12-18T16:07:16;-1.20;63.90
4312;DHT22;2169;49.086;9.284;2022-12-18T16:09:43;-1.30;63.80
4312;DHT22;2169;49.086;9.284;2022-12-18T16:12:16;-1.30;63.90
4312;DHT22;2169;49.086;9.284;2022-12-18T16:14:46;-1.30;63.90
4312;DHT22;2169;49.086;9.284;2022-12-18T16:17:14;-1.40;63.90
4312;DHT22;2169;49.086;9.284;2022-12-18T16:19:44;-1.40;63.90
4312;DHT22;2169;49.086;9.284;2022-12-18T16:22:18;-1.40;63.90
4312;DHT22;2169;49.086;9.284;2022-12-18T16:24:47;-1.40;63.90
4312;DHT22;2169;49.086;9.284;2022-12-18T16:27:14;-1.50;63.80
4312;DHT22;2169;49.086;9.284;2022-12-18T16:29:41;-1.50;63.80
4312;DHT22;2169;49.086;9.284;2022-12-18T16:32:16;-1.50;63.80
4312;DHT22;2169;49.086;9.284;2022-12-18T16:34:43;-1.50;63.80